sensor_id;sensor_type;location;lat;lon;timestamp;P1;durP1;ratioP1;P2;durP2;ratioP2
63906;SDS011;50075;49.484;11.238;2022-08-03T00:02:10;40.92;;;7.43;;
63906;SDS011;50075;49.484;11.238;2022-08-03T00:04:35;33.28;;;6.75;;
63906;SDS011;50075;49.484;11.238;2022-08-03T00:07:00;44.50;;;7.85;;
63906;SDS011;50075;49.484;11.238;2022-08-03T00:09:26;39.88;;;7.53;;
63906;SDS011;50075;49.484;11.238;2022-08-03T00:11:51;39.08;;;7.13;;
63906;SDS011;50075;49.484;11.238;2022-08-03T00:14:16;42.45;;;7.95;;
63906;SDS011;50075;49.484;11.238;2022-08-03T00:16:42;47.10;;;7.93;;
63906;SDS011;50075;49.484;11.238;2022-08-03T00:19:07;44.50;;;8.40;;
63906;SDS011;50075;49.484;11.238;2022-08-03T00:21:32;46.97;;;8.35;;
63906;SDS011;50075;49.484;11.238;2022-08-03T00:23:58;36.83;;;7.65;;
63906;SDS011;50075;49.484;11.238;2022-08-03T00:26:23;48.17;;;8.40;;
63906;SDS011;50075;49.484;11.238;2022-08-03T00:28:49;39.65;;;7.55;;
63906;SDS011;50075;49.484;11.238;2022-08-03T00:31:14;40.72;;;7.82;;
63906;SDS011;50075;49.484;11.238;2022-08-03T00:33:40;45.67;;;8.38;;
63906;SDS011;50075;49.484;11.238;2022-08-03T00:36:06;41.13;;;7.72;;
63906;SDS011;50075;49.484;11.238;2022-08-03T00:38:31;41.50;;;7.70;;
63906;SDS011;50075;49.484;11.238;2022-08-03T00:40:56;39.72;;;7.78;;
63906;SDS011;50075;49.484;11.238;2022-08-03T00:43:23;52.50;;;8.95;;
63906;SDS011;50075;49.484;11.238;2022-08-03T00:45:50;43.67;;;8.20;;
63906;SDS011;50075;49.484;11.238;2022-08-03T00:48:16;38.50;;;7.68;;
63906;SDS011;50075;49.484;11.238;2022-08-03T00:50:41;39.97;;;7.72;;
63906;SDS011;50075;49.484;11.238;2022-08-03T00:53:08;43.53;;;8.45;;
63906;SDS011;50075;49.484;11.238;2022-08-03T00:55:36;45.42;;;7.90;;
63906;SDS011;50075;49.484;11.238;2022-08-03T00:58:02;43.53;;;7.57;;
63906;SDS011;50075;49.484;11.238;2022-08-03T01:00:31;42.83;;;7.93;;
63906;SDS011;50075;49.484;11.238;2022-08-03T01:02:59;44.08;;;7.72;;
63906;SDS011;50075;49.484;11.238;2022-08-03T01:05:25;44.05;;;8.15;;
63906;SDS011;50075;49.484;11.238;2022-08-03T01:08:02;42.08;;;7.63;;
63906;SDS011;50075;49.484;11.238;2022-08-03T01:21:20;39.30;;;7.68;;
63906;SDS011;50075;49.484;11.238;2022-08-03T01:27:27;49.35;;;8.65;;
63906;SDS011;50075;49.484;11.238;2022-08-03T01:32:23;45.60;;;7.88;;
63906;SDS011;50075;49.484;11.238;2022-08-03T01:34:54;53.72;;;8.93;;
63906;SDS011;50075;49.484;11.238;2022-08-03T01:37:26;49.10;;;8.30;;
63906;SDS011;50075;49.484;11.238;2022-08-03T01:40:09;60.30;;;9.65;;
63906;SDS011;50075;49.484;11.238;2022-08-03T01:42:37;40.72;;;7.85;;
63906;SDS011;50075;49.484;11.238;2022-08-03T01:45:05;55.95;;;9.10;;
63906;SDS011;50075;49.484;11.238;2022-08-03T01:47:33;44.65;;;8.15;;
63906;SDS011;50075;49.484;11.238;2022-08-03T01:50:00;74.55;;;11.27;;
63906;SDS011;50075;49.484;11.238;2022-08-03T01:52:27;44.35;;;8.07;;
63906;SDS011;50075;49.484;11.238;2022-08-03T01:54:56;42.15;;;8.27;;
63906;SDS011;50075;49.484;11.238;2022-08-03T01:57:22;42.30;;;7.82;;
63906;SDS011;50075;49.484;11.238;2022-08-03T01:59:49;43.42;;;7.97;;
63906;SDS011;50075;49.484;11.238;2022-08-03T02:02:16;44.92;;;8.02;;
63906;SDS011;50075;49.484;11.238;2022-08-03T02:04:43;46.10;;;8.40;;
63906;SDS011;50075;49.484;11.238;2022-08-03T02:07:10;52.88;;;8.23;;
63906;SDS011;50075;49.484;11.238;2022-08-03T02:09:39;44.92;;;7.95;;
63906;SDS011;50075;49.484;11.238;2022-08-03T02:12:08;54.45;;;8.88;;
63906;SDS011;50075;49.484;11.238;2022-08-03T02:14:35;42.20;;;7.63;;
63906;SDS011;50075;49.484;11.238;2022-08-03T02:17:03;44.05;;;8.05;;
63906;SDS011;50075;49.484;11.238;2022-08-03T02:19:31;47.22;;;8.60;;
63906;SDS011;50075;49.484;11.238;2022-08-03T02:21:57;45.17;;;8.30;;
63906;SDS011;50075;49.484;11.238;2022-08-03T02:24:23;51.72;;;8.95;;
63906;SDS011;50075;49.484;11.238;2022-08-03T02:26:48;43.60;;;8.48;;
63906;SDS011;50075;49.484;11.238;2022-08-03T02:29:20;42.20;;;8.27;;
63906;SDS011;50075;49.484;11.238;2022-08-03T02:31:49;47.50;;;8.25;;
63906;SDS011;50075;49.484;11.238;2022-08-03T02:34:16;47.95;;;8.73;;
63906;SDS011;50075;49.484;11.238;2022-08-03T02:36:45;46.95;;;8.35;;
63906;SDS011;50075;49.484;11.238;2022-08-03T02:39:16;53.53;;;8.85;;
63906;SDS011;50075;49.484;11.238;2022-08-03T02:41:46;55.53;;;9.00;;
63906;SDS011;50075;49.484;11.238;2022-08-03T02:44:15;46.80;;;8.63;;
63906;SDS011;50075;49.484;11.238;2022-08-03T02:46:45;58.13;;;9.45;;
63906;SDS011;50075;49.484;11.238;2022-08-03T02:49:13;52.10;;;8.70;;
63906;SDS011;50075;49.484;11.238;2022-08-03T02:51:42;56.15;;;9.68;;
63906;SDS011;50075;49.484;11.238;2022-08-03T02:54:09;45.65;;;8.27;;
63906;SDS011;50075;49.484;11.238;2022-08-03T02:56:36;48.38;;;8.38;;
63906;SDS011;50075;49.484;11.238;2022-08-03T02:59:02;47.15;;;8.15;;
63906;SDS011;50075;49.484;11.238;2022-08-03T03:01:29;63.60;;;9.68;;
63906;SDS011;50075;49.484;11.238;2022-08-03T03:03:56;56.28;;;9.38;;
63906;SDS011;50075;49.484;11.238;2022-08-03T03:06:23;51.60;;;8.55;;
63906;SDS011;50075;49.484;11.238;2022-08-03T03:08:51;56.35;;;9.10;;
63906;SDS011;50075;49.484;11.238;2022-08-03T03:11:18;47.90;;;7.80;;
63906;SDS011;50075;49.484;11.238;2022-08-03T03:13:45;53.08;;;8.70;;
63906;SDS011;50075;49.484;11.238;2022-08-03T03:16:13;48.40;;;8.35;;
63906;SDS011;50075;49.484;11.238;2022-08-03T03:18:39;41.55;;;8.13;;
63906;SDS011;50075;49.484;11.238;2022-08-03T03:21:08;62.92;;;9.48;;
63906;SDS011;50075;49.484;11.238;2022-08-03T03:23:38;42.70;;;8.32;;
63906;SDS011;50075;49.484;11.238;2022-08-03T03:26:05;54.25;;;8.98;;
63906;SDS011;50075;49.484;11.238;2022-08-03T03:28:31;42.83;;;8.20;;
63906;SDS011;50075;49.484;11.238;2022-08-03T03:30:57;48.30;;;8.68;;
63906;SDS011;50075;49.484;11.238;2022-08-03T03:33:24;56.85;;;9.05;;
63906;SDS011;50075;49.484;11.238;2022-08-03T03:35:49;46.85;;;8.90;;
63906;SDS011;50075;49.484;11.238;2022-08-03T03:38:16;53.42;;;9.00;;
63906;SDS011;50075;49.484;11.238;2022-08-03T03:40:42;40.60;;;8.20;;
63906;SDS011;50075;49.484;11.238;2022-08-03T03:43:08;60.50;;;9.73;;
63906;SDS011;50075;49.484;11.238;2022-08-03T03:45:35;48.88;;;8.07;;
63906;SDS011;50075;49.484;11.238;2022-08-03T03:48:04;43.75;;;7.72;;
63906;SDS011;50075;49.484;11.238;2022-08-03T03:50:31;45.03;;;8.38;;
63906;SDS011;50075;49.484;11.238;2022-08-03T03:52:57;42.63;;;7.93;;
63906;SDS011;50075;49.484;11.238;2022-08-03T03:55:23;45.53;;;8.82;;
63906;SDS011;50075;49.484;11.238;2022-08-03T03:57:48;44.35;;;8.20;;
63906;SDS011;50075;49.484;11.238;2022-08-03T04:00:14;34.65;;;7.75;;
63906;SDS011;50075;49.484;11.238;2022-08-03T04:02:41;40.72;;;7.95;;
63906;SDS011;50075;49.484;11.238;2022-08-03T04:05:07;45.83;;;8.20;;
63906;SDS011;50075;49.484;11.238;2022-08-03T04:07:57;42.72;;;8.15;;
63906;SDS011;50075;49.484;11.238;2022-08-03T04:10:45;50.58;;;8.98;;
63906;SDS011;50075;49.484;11.238;2022-08-03T04:13:34;54.88;;;9.32;;
63906;SDS011;50075;49.484;11.238;2022-08-03T04:16:02;46.38;;;8.13;;
63906;SDS011;50075;49.484;11.238;2022-08-03T04:18:29;44.92;;;8.60;;
63906;SDS011;50075;49.484;11.238;2022-08-03T04:20:58;42.33;;;8.00;;
63906;SDS011;50075;49.484;11.238;2022-08-03T04:23:27;47.50;;;8.82;;
63906;SDS011;50075;49.484;11.238;2022-08-03T04:25:55;37.30;;;7.95;;
63906;SDS011;50075;49.484;11.238;2022-08-03T04:28:22;42.40;;;8.20;;
63906;SDS011;50075;49.484;11.238;2022-08-03T04:30:48;51.85;;;8.90;;
63906;SDS011;50075;49.484;11.238;2022-08-03T04:33:15;52.85;;;8.93;;
63906;SDS011;50075;49.484;11.238;2022-08-03T04:35:42;55.40;;;9.20;;
63906;SDS011;50075;49.484;11.238;2022-08-03T04:38:09;36.17;;;7.38;;
63906;SDS011;50075;49.484;11.238;2022-08-03T04:40:38;34.70;;;7.22;;
63906;SDS011;50075;49.484;11.238;2022-08-03T04:43:06;38.83;;;8.07;;
63906;SDS011;50075;49.484;11.238;2022-08-03T04:45:34;29.38;;;6.72;;
63906;SDS011;50075;49.484;11.238;2022-08-03T04:48:01;36.97;;;7.60;;
63906;SDS011;50075;49.484;11.238;2022-08-03T04:50:27;39.22;;;7.75;;
63906;SDS011;50075;49.484;11.238;2022-08-03T04:52:54;42.20;;;7.97;;
63906;SDS011;50075;49.484;11.238;2022-08-03T04:55:29;37.40;;;7.22;;
63906;SDS011;50075;49.484;11.238;2022-08-03T04:57:56;40.97;;;7.85;;
63906;SDS011;50075;49.484;11.238;2022-08-03T05:00:22;36.55;;;7.40;;
63906;SDS011;50075;49.484;11.238;2022-08-03T05:02:48;31.75;;;7.40;;
63906;SDS011;50075;49.484;11.238;2022-08-03T05:05:14;46.08;;;8.10;;
63906;SDS011;50075;49.484;11.238;2022-08-03T05:07:40;39.53;;;7.57;;
63906;SDS011;50075;49.484;11.238;2022-08-03T05:10:06;54.97;;;9.48;;
63906;SDS011;50075;49.484;11.238;2022-08-03T05:12:33;34.47;;;7.38;;
63906;SDS011;50075;49.484;11.238;2022-08-03T05:15:00;29.45;;;6.78;;
63906;SDS011;50075;49.484;11.238;2022-08-03T05:17:25;30.80;;;6.47;;
63906;SDS011;50075;49.484;11.238;2022-08-03T05:19:52;46.33;;;7.57;;
63906;SDS011;50075;49.484;11.238;2022-08-03T05:22:18;39.88;;;7.60;;
63906;SDS011;50075;49.484;11.238;2022-08-03T05:24:43;29.50;;;7.13;;
63906;SDS011;50075;49.484;11.238;2022-08-03T05:27:09;33.60;;;7.18;;
63906;SDS011;50075;49.484;11.238;2022-08-03T05:29:34;33.05;;;8.35;;
63906;SDS011;50075;49.484;11.238;2022-08-03T05:32:00;27.85;;;6.40;;
63906;SDS011;50075;49.484;11.238;2022-08-03T05:34:26;37.22;;;7.28;;
63906;SDS011;50075;49.484;11.238;2022-08-03T05:36:51;32.03;;;6.90;;
63906;SDS011;50075;49.484;11.238;2022-08-03T05:39:16;29.73;;;6.65;;
63906;SDS011;50075;49.484;11.238;2022-08-03T05:41:42;26.48;;;6.82;;
63906;SDS011;50075;49.484;11.238;2022-08-03T05:44:07;31.05;;;6.38;;
63906;SDS011;50075;49.484;11.238;2022-08-03T05:46:32;45.40;;;7.93;;
63906;SDS011;50075;49.484;11.238;2022-08-03T05:48:58;24.23;;;6.05;;
63906;SDS011;50075;49.484;11.238;2022-08-03T05:51:23;38.70;;;7.78;;
63906;SDS011;50075;49.484;11.238;2022-08-03T05:53:48;26.65;;;6.20;;
63906;SDS011;50075;49.484;11.238;2022-08-03T05:56:14;55.97;;;8.63;;
63906;SDS011;50075;49.484;11.238;2022-08-03T05:58:40;32.20;;;6.57;;
63906;SDS011;50075;49.484;11.238;2022-08-03T06:01:06;30.92;;;6.32;;
63906;SDS011;50075;49.484;11.238;2022-08-03T06:03:31;25.00;;;6.10;;
63906;SDS011;50075;49.484;11.238;2022-08-03T06:05:56;24.52;;;5.07;;
63906;SDS011;50075;49.484;11.238;2022-08-03T06:08:22;21.27;;;5.22;;
63906;SDS011;50075;49.484;11.238;2022-08-03T06:10:48;21.52;;;5.10;;
63906;SDS011;50075;49.484;11.238;2022-08-03T06:13:14;20.23;;;4.95;;
63906;SDS011;50075;49.484;11.238;2022-08-03T06:15:39;21.02;;;4.50;;
63906;SDS011;50075;49.484;11.238;2022-08-03T06:18:06;22.05;;;5.20;;
63906;SDS011;50075;49.484;11.238;2022-08-03T06:20:32;19.10;;;4.70;;
63906;SDS011;50075;49.484;11.238;2022-08-03T06:22:57;21.60;;;5.13;;
63906;SDS011;50075;49.484;11.238;2022-08-03T06:25:24;17.50;;;4.90;;
63906;SDS011;50075;49.484;11.238;2022-08-03T06:27:49;16.55;;;4.85;;
63906;SDS011;50075;49.484;11.238;2022-08-03T06:30:15;15.45;;;4.50;;
63906;SDS011;50075;49.484;11.238;2022-08-03T06:32:41;20.42;;;5.28;;
63906;SDS011;50075;49.484;11.238;2022-08-03T06:35:07;16.38;;;4.85;;
63906;SDS011;50075;49.484;11.238;2022-08-03T06:37:46;13.52;;;4.47;;
63906;SDS011;50075;49.484;11.238;2022-08-03T06:40:14;19.58;;;4.72;;
63906;SDS011;50075;49.484;11.238;2022-08-03T06:42:42;12.38;;;4.07;;
63906;SDS011;50075;49.484;11.238;2022-08-03T06:45:08;12.38;;;3.80;;
63906;SDS011;50075;49.484;11.238;2022-08-03T06:47:35;13.25;;;4.05;;
63906;SDS011;50075;49.484;11.238;2022-08-03T06:50:01;15.90;;;4.88;;
63906;SDS011;50075;49.484;11.238;2022-08-03T06:52:28;12.90;;;4.18;;
63906;SDS011;50075;49.484;11.238;2022-08-03T06:54:53;12.35;;;4.00;;
63906;SDS011;50075;49.484;11.238;2022-08-03T06:57:18;21.73;;;5.60;;
63906;SDS011;50075;49.484;11.238;2022-08-03T06:59:44;10.68;;;3.83;;
63906;SDS011;50075;49.484;11.238;2022-08-03T07:02:09;14.10;;;4.40;;
63906;SDS011;50075;49.484;11.238;2022-08-03T07:04:35;11.57;;;3.50;;
63906;SDS011;50075;49.484;11.238;2022-08-03T07:07:01;11.20;;;3.33;;
63906;SDS011;50075;49.484;11.238;2022-08-03T07:09:26;14.50;;;4.07;;
63906;SDS011;50075;49.484;11.238;2022-08-03T07:11:52;10.20;;;3.70;;
63906;SDS011;50075;49.484;11.238;2022-08-03T07:14:18;8.52;;;3.35;;
63906;SDS011;50075;49.484;11.238;2022-08-03T07:16:43;11.57;;;3.67;;
63906;SDS011;50075;49.484;11.238;2022-08-03T07:19:08;9.77;;;3.30;;
63906;SDS011;50075;49.484;11.238;2022-08-03T07:21:34;19.50;;;4.40;;
63906;SDS011;50075;49.484;11.238;2022-08-03T07:23:59;20.53;;;3.97;;
63906;SDS011;50075;49.484;11.238;2022-08-03T07:26:24;10.93;;;3.80;;
63906;SDS011;50075;49.484;11.238;2022-08-03T07:28:50;11.20;;;3.50;;
63906;SDS011;50075;49.484;11.238;2022-08-03T07:31:15;9.25;;;3.33;;
63906;SDS011;50075;49.484;11.238;2022-08-03T07:33:40;13.30;;;3.88;;
63906;SDS011;50075;49.484;11.238;2022-08-03T07:36:06;9.02;;;3.22;;
63906;SDS011;50075;49.484;11.238;2022-08-03T07:38:31;14.30;;;3.58;;
63906;SDS011;50075;49.484;11.238;2022-08-03T07:40:59;11.20;;;3.53;;
63906;SDS011;50075;49.484;11.238;2022-08-03T07:43:24;8.65;;;3.30;;
63906;SDS011;50075;49.484;11.238;2022-08-03T07:45:50;12.20;;;3.67;;
63906;SDS011;50075;49.484;11.238;2022-08-03T07:48:15;11.88;;;3.70;;
63906;SDS011;50075;49.484;11.238;2022-08-03T07:50:41;14.18;;;3.60;;
63906;SDS011;50075;49.484;11.238;2022-08-03T07:53:06;15.10;;;4.00;;
63906;SDS011;50075;49.484;11.238;2022-08-03T07:55:31;15.63;;;4.13;;
63906;SDS011;50075;49.484;11.238;2022-08-03T08:00:26;12.80;;;3.85;;
63906;SDS011;50075;49.484;11.238;2022-08-03T08:02:52;12.90;;;3.80;;
63906;SDS011;50075;49.484;11.238;2022-08-03T08:05:17;11.90;;;3.57;;
63906;SDS011;50075;49.484;11.238;2022-08-03T08:07:42;10.23;;;3.35;;
63906;SDS011;50075;49.484;11.238;2022-08-03T08:10:08;13.10;;;3.90;;
63906;SDS011;50075;49.484;11.238;2022-08-03T08:12:34;12.25;;;3.60;;
63906;SDS011;50075;49.484;11.238;2022-08-03T08:15:00;14.60;;;3.72;;
63906;SDS011;50075;49.484;11.238;2022-08-03T08:17:25;8.23;;;3.00;;
63906;SDS011;50075;49.484;11.238;2022-08-03T08:19:51;14.07;;;3.63;;
63906;SDS011;50075;49.484;11.238;2022-08-03T08:22:16;24.10;;;4.10;;
63906;SDS011;50075;49.484;11.238;2022-08-03T08:24:43;11.55;;;3.60;;
63906;SDS011;50075;49.484;11.238;2022-08-03T08:27:08;10.50;;;3.55;;
63906;SDS011;50075;49.484;11.238;2022-08-03T08:29:36;8.70;;;3.00;;
63906;SDS011;50075;49.484;11.238;2022-08-03T08:32:02;8.90;;;3.20;;
63906;SDS011;50075;49.484;11.238;2022-08-03T08:34:28;15.20;;;3.67;;
63906;SDS011;50075;49.484;11.238;2022-08-03T08:36:53;13.27;;;3.70;;
63906;SDS011;50075;49.484;11.238;2022-08-03T08:39:18;60.60;;;6.13;;
63906;SDS011;50075;49.484;11.238;2022-08-03T08:41:44;14.00;;;3.17;;
63906;SDS011;50075;49.484;11.238;2022-08-03T08:44:09;9.77;;;3.38;;
63906;SDS011;50075;49.484;11.238;2022-08-03T08:46:34;11.73;;;3.50;;
63906;SDS011;50075;49.484;11.238;2022-08-03T08:49:02;15.35;;;3.47;;
63906;SDS011;50075;49.484;11.238;2022-08-03T08:51:31;12.18;;;3.78;;
63906;SDS011;50075;49.484;11.238;2022-08-03T08:54:01;12.75;;;3.72;;
63906;SDS011;50075;49.484;11.238;2022-08-03T08:56:28;12.18;;;4.00;;
63906;SDS011;50075;49.484;11.238;2022-08-03T08:58:57;14.50;;;3.20;;
63906;SDS011;50075;49.484;11.238;2022-08-03T09:01:23;13.63;;;3.70;;
63906;SDS011;50075;49.484;11.238;2022-08-03T09:03:49;9.73;;;3.03;;
63906;SDS011;50075;49.484;11.238;2022-08-03T09:06:15;9.32;;;3.08;;
63906;SDS011;50075;49.484;11.238;2022-08-03T09:08:41;10.73;;;3.30;;
63906;SDS011;50075;49.484;11.238;2022-08-03T09:11:06;13.15;;;3.60;;
63906;SDS011;50075;49.484;11.238;2022-08-03T09:13:32;9.88;;;3.33;;
63906;SDS011;50075;49.484;11.238;2022-08-03T09:16:18;10.48;;;3.40;;
63906;SDS011;50075;49.484;11.238;2022-08-03T09:18:46;11.32;;;3.53;;
63906;SDS011;50075;49.484;11.238;2022-08-03T09:23:47;14.43;;;3.85;;
63906;SDS011;50075;49.484;11.238;2022-08-03T09:26:21;17.70;;;3.92;;
63906;SDS011;50075;49.484;11.238;2022-08-03T09:28:53;14.80;;;3.50;;
63906;SDS011;50075;49.484;11.238;2022-08-03T09:33:55;20.67;;;4.10;;
63906;SDS011;50075;49.484;11.238;2022-08-03T09:36:33;16.10;;;3.83;;
63906;SDS011;50075;49.484;11.238;2022-08-03T09:39:07;17.58;;;3.88;;
63906;SDS011;50075;49.484;11.238;2022-08-03T09:41:41;17.05;;;3.90;;
63906;SDS011;50075;49.484;11.238;2022-08-03T09:44:09;14.48;;;3.65;;
63906;SDS011;50075;49.484;11.238;2022-08-03T09:46:50;14.05;;;3.50;;
63906;SDS011;50075;49.484;11.238;2022-08-03T09:49:22;22.83;;;4.70;;
63906;SDS011;50075;49.484;11.238;2022-08-03T09:51:48;15.52;;;3.63;;
63906;SDS011;50075;49.484;11.238;2022-08-03T09:54:26;18.67;;;4.13;;
63906;SDS011;50075;49.484;11.238;2022-08-03T09:56:55;15.60;;;3.55;;
63906;SDS011;50075;49.484;11.238;2022-08-03T09:59:22;13.57;;;3.28;;
63906;SDS011;50075;49.484;11.238;2022-08-03T10:04:18;29.10;;;4.13;;
63906;SDS011;50075;49.484;11.238;2022-08-03T10:06:45;15.13;;;3.40;;
63906;SDS011;50075;49.484;11.238;2022-08-03T10:09:25;16.52;;;3.55;;
63906;SDS011;50075;49.484;11.238;2022-08-03T10:11:50;14.38;;;3.33;;
63906;SDS011;50075;49.484;11.238;2022-08-03T10:14:16;18.88;;;3.38;;
63906;SDS011;50075;49.484;11.238;2022-08-03T10:16:45;15.55;;;3.15;;
63906;SDS011;50075;49.484;11.238;2022-08-03T10:19:11;17.48;;;3.80;;
63906;SDS011;50075;49.484;11.238;2022-08-03T10:21:39;16.95;;;3.72;;
63906;SDS011;50075;49.484;11.238;2022-08-03T10:24:07;12.95;;;3.25;;
63906;SDS011;50075;49.484;11.238;2022-08-03T10:26:35;17.10;;;3.78;;
63906;SDS011;50075;49.484;11.238;2022-08-03T10:29:04;15.02;;;3.55;;
63906;SDS011;50075;49.484;11.238;2022-08-03T10:31:39;20.48;;;4.32;;
63906;SDS011;50075;49.484;11.238;2022-08-03T10:34:16;17.30;;;3.30;;
63906;SDS011;50075;49.484;11.238;2022-08-03T10:36:46;18.42;;;3.92;;
63906;SDS011;50075;49.484;11.238;2022-08-03T10:39:13;13.30;;;3.25;;
63906;SDS011;50075;49.484;11.238;2022-08-03T10:41:43;20.05;;;4.20;;
63906;SDS011;50075;49.484;11.238;2022-08-03T10:44:17;18.98;;;4.07;;
63906;SDS011;50075;49.484;11.238;2022-08-03T10:46:44;18.15;;;4.03;;
63906;SDS011;50075;49.484;11.238;2022-08-03T10:49:13;14.05;;;3.40;;
63906;SDS011;50075;49.484;11.238;2022-08-03T10:51:40;13.60;;;3.03;;
63906;SDS011;50075;49.484;11.238;2022-08-03T10:54:07;14.77;;;3.63;;
63906;SDS011;50075;49.484;11.238;2022-08-03T10:57:00;17.52;;;3.58;;
63906;SDS011;50075;49.484;11.238;2022-08-03T11:02:10;15.03;;;3.80;;
63906;SDS011;50075;49.484;11.238;2022-08-03T11:04:36;18.27;;;3.70;;
63906;SDS011;50075;49.484;11.238;2022-08-03T11:07:18;17.60;;;3.85;;
63906;SDS011;50075;49.484;11.238;2022-08-03T11:09:48;17.92;;;3.88;;
63906;SDS011;50075;49.484;11.238;2022-08-03T11:14:55;19.05;;;3.60;;
63906;SDS011;50075;49.484;11.238;2022-08-03T11:17:22;17.75;;;3.65;;
63906;SDS011;50075;49.484;11.238;2022-08-03T11:19:49;16.23;;;3.45;;
63906;SDS011;50075;49.484;11.238;2022-08-03T11:22:16;20.10;;;3.80;;
63906;SDS011;50075;49.484;11.238;2022-08-03T11:30:24;16.15;;;3.40;;
63906;SDS011;50075;49.484;11.238;2022-08-03T11:35:09;25.02;;;4.00;;
63906;SDS011;50075;49.484;11.238;2022-08-03T11:43:53;19.23;;;3.67;;
63906;SDS011;50075;49.484;11.238;2022-08-03T11:46:08;21.10;;;3.90;;
63906;SDS011;50075;49.484;11.238;2022-08-03T11:48:39;22.00;;;4.10;;
63906;SDS011;50075;49.484;11.238;2022-08-03T11:53:57;15.57;;;2.97;;
63906;SDS011;50075;49.484;11.238;2022-08-03T11:56:25;36.00;;;5.70;;
63906;SDS011;50075;49.484;11.238;2022-08-03T11:58:55;22.15;;;4.10;;
63906;SDS011;50075;49.484;11.238;2022-08-03T12:01:23;24.60;;;4.40;;
63906;SDS011;50075;49.484;11.238;2022-08-03T12:03:49;18.50;;;3.50;;
63906;SDS011;50075;49.484;11.238;2022-08-03T12:06:16;16.77;;;3.15;;
63906;SDS011;50075;49.484;11.238;2022-08-03T12:08:42;26.73;;;3.85;;
63906;SDS011;50075;49.484;11.238;2022-08-03T12:11:09;21.50;;;3.70;;
63906;SDS011;50075;49.484;11.238;2022-08-03T12:13:41;18.27;;;3.47;;
63906;SDS011;50075;49.484;11.238;2022-08-03T12:18:33;24.85;;;4.20;;
63906;SDS011;50075;49.484;11.238;2022-08-03T12:21:06;20.90;;;3.90;;
63906;SDS011;50075;49.484;11.238;2022-08-03T12:23:33;22.08;;;3.97;;
63906;SDS011;50075;49.484;11.238;2022-08-03T12:26:03;22.23;;;3.38;;
63906;SDS011;50075;49.484;11.238;2022-08-03T12:28:30;18.75;;;3.40;;
63906;SDS011;50075;49.484;11.238;2022-08-03T12:30:59;24.63;;;4.07;;
63906;SDS011;50075;49.484;11.238;2022-08-03T12:33:26;21.08;;;3.85;;
63906;SDS011;50075;49.484;11.238;2022-08-03T12:38:27;21.42;;;3.90;;
63906;SDS011;50075;49.484;11.238;2022-08-03T12:40:56;26.85;;;4.43;;
63906;SDS011;50075;49.484;11.238;2022-08-03T12:43:23;19.23;;;3.50;;
63906;SDS011;50075;49.484;11.238;2022-08-03T12:45:49;31.02;;;4.35;;
63906;SDS011;50075;49.484;11.238;2022-08-03T12:48:14;23.65;;;3.60;;
63906;SDS011;50075;49.484;11.238;2022-08-03T12:50:40;27.23;;;4.10;;
63906;SDS011;50075;49.484;11.238;2022-08-03T12:53:06;25.08;;;4.25;;
63906;SDS011;50075;49.484;11.238;2022-08-03T12:55:33;23.40;;;3.92;;
63906;SDS011;50075;49.484;11.238;2022-08-03T12:57:59;34.45;;;4.85;;
63906;SDS011;50075;49.484;11.238;2022-08-03T13:00:25;24.77;;;4.10;;
63906;SDS011;50075;49.484;11.238;2022-08-03T13:03:07;22.88;;;3.95;;
63906;SDS011;50075;49.484;11.238;2022-08-03T13:05:42;24.50;;;4.15;;
63906;SDS011;50075;49.484;11.238;2022-08-03T13:08:18;23.13;;;4.10;;
63906;SDS011;50075;49.484;11.238;2022-08-03T13:10:45;26.25;;;4.40;;
63906;SDS011;50075;49.484;11.238;2022-08-03T13:13:10;32.67;;;5.13;;
63906;SDS011;50075;49.484;11.238;2022-08-03T13:15:36;28.13;;;4.57;;
63906;SDS011;50075;49.484;11.238;2022-08-03T13:18:01;27.85;;;4.43;;
63906;SDS011;50075;49.484;11.238;2022-08-03T13:20:27;28.30;;;4.38;;
63906;SDS011;50075;49.484;11.238;2022-08-03T13:22:52;25.42;;;4.10;;
63906;SDS011;50075;49.484;11.238;2022-08-03T13:25:17;34.78;;;5.55;;
63906;SDS011;50075;49.484;11.238;2022-08-03T13:27:44;32.03;;;4.60;;
63906;SDS011;50075;49.484;11.238;2022-08-03T13:30:10;33.33;;;4.95;;
63906;SDS011;50075;49.484;11.238;2022-08-03T13:32:36;31.65;;;4.57;;
63906;SDS011;50075;49.484;11.238;2022-08-03T13:35:01;27.88;;;4.40;;
63906;SDS011;50075;49.484;11.238;2022-08-03T13:37:28;29.50;;;4.65;;
63906;SDS011;50075;49.484;11.238;2022-08-03T13:39:56;36.33;;;5.03;;
63906;SDS011;50075;49.484;11.238;2022-08-03T13:42:21;31.10;;;4.90;;
63906;SDS011;50075;49.484;11.238;2022-08-03T13:44:47;26.25;;;4.28;;
63906;SDS011;50075;49.484;11.238;2022-08-03T13:47:12;24.50;;;4.05;;
63906;SDS011;50075;49.484;11.238;2022-08-03T13:49:37;28.65;;;4.68;;
63906;SDS011;50075;49.484;11.238;2022-08-03T13:52:03;25.25;;;3.80;;
63906;SDS011;50075;49.484;11.238;2022-08-03T13:54:28;32.05;;;4.88;;
63906;SDS011;50075;49.484;11.238;2022-08-03T13:56:54;24.17;;;4.13;;
63906;SDS011;50075;49.484;11.238;2022-08-03T13:59:20;22.42;;;3.80;;
63906;SDS011;50075;49.484;11.238;2022-08-03T14:01:47;32.55;;;4.90;;
63906;SDS011;50075;49.484;11.238;2022-08-03T14:04:13;55.22;;;5.25;;
63906;SDS011;50075;49.484;11.238;2022-08-03T14:06:38;30.90;;;4.43;;
63906;SDS011;50075;49.484;11.238;2022-08-03T14:09:03;29.98;;;4.40;;
63906;SDS011;50075;49.484;11.238;2022-08-03T14:11:29;29.70;;;4.85;;
63906;SDS011;50075;49.484;11.238;2022-08-03T14:13:54;33.28;;;5.15;;
63906;SDS011;50075;49.484;11.238;2022-08-03T14:16:20;18.95;;;3.35;;
63906;SDS011;50075;49.484;11.238;2022-08-03T14:18:45;27.67;;;4.50;;
63906;SDS011;50075;49.484;11.238;2022-08-03T14:21:11;29.10;;;4.40;;
63906;SDS011;50075;49.484;11.238;2022-08-03T14:23:36;26.58;;;4.50;;
63906;SDS011;50075;49.484;11.238;2022-08-03T14:26:02;29.83;;;4.63;;
63906;SDS011;50075;49.484;11.238;2022-08-03T14:28:29;30.60;;;4.43;;
63906;SDS011;50075;49.484;11.238;2022-08-03T14:30:54;28.73;;;4.78;;
63906;SDS011;50075;49.484;11.238;2022-08-03T14:33:20;30.92;;;4.50;;
63906;SDS011;50075;49.484;11.238;2022-08-03T14:35:46;29.98;;;4.03;;
63906;SDS011;50075;49.484;11.238;2022-08-03T14:38:12;24.83;;;4.00;;
63906;SDS011;50075;49.484;11.238;2022-08-03T14:40:38;22.92;;;3.83;;
63906;SDS011;50075;49.484;11.238;2022-08-03T14:43:03;25.13;;;4.13;;
63906;SDS011;50075;49.484;11.238;2022-08-03T14:45:29;20.75;;;3.40;;
63906;SDS011;50075;49.484;11.238;2022-08-03T14:47:55;22.48;;;3.55;;
63906;SDS011;50075;49.484;11.238;2022-08-03T14:50:20;28.83;;;4.28;;
63906;SDS011;50075;49.484;11.238;2022-08-03T14:52:47;26.10;;;4.15;;
63906;SDS011;50075;49.484;11.238;2022-08-03T14:55:12;24.10;;;4.03;;
63906;SDS011;50075;49.484;11.238;2022-08-03T14:57:37;18.58;;;3.45;;
63906;SDS011;50075;49.484;11.238;2022-08-03T15:00:03;35.45;;;5.20;;
63906;SDS011;50075;49.484;11.238;2022-08-03T15:02:29;21.05;;;3.47;;
63906;SDS011;50075;49.484;11.238;2022-08-03T15:04:54;22.23;;;3.85;;
63906;SDS011;50075;49.484;11.238;2022-08-03T15:07:20;29.35;;;4.53;;
63906;SDS011;50075;49.484;11.238;2022-08-03T15:09:45;23.27;;;3.90;;
63906;SDS011;50075;49.484;11.238;2022-08-03T15:12:11;18.98;;;3.40;;
63906;SDS011;50075;49.484;11.238;2022-08-03T15:14:36;19.52;;;3.42;;
63906;SDS011;50075;49.484;11.238;2022-08-03T15:17:02;18.83;;;3.53;;